ADDS METAR Data INFO
IDs: Format: Raw Decoded Include TAF

Data at: 0259 UTC 21 Jun 2018

NZCH 210230Z AUTO 33002KT 9999 SCT038/// 09/05 Q1022 NOSIG
NZCH 210200Z AUTO 27001KT 9999 BKN043/// 09/05 Q1022 NOSIG
NZCH 210130Z AUTO 26002KT 9999 OVC044/// 09/05 Q1023 NOSIG
NZCH 210100Z AUTO 28003KT 9999 BKN044/// 08/05 Q1023 NOSIG
NZCH 210030Z AUTO 24001KT 9999 BKN044/// 08/06 Q1023 NOSIG
NZCH 210000Z AUTO 26002KT 9999 FEW007/// OVC044/// 07/06 Q1024 NOSIG

TAF NZCH 202303Z 2100/2200 23005KT 9999 SCT020 BKN040
  PROB40 2113/2121 0400 FG BKN004